sensor_id;sensor_type;location;lat;lon;timestamp;temperature;humidity
21298;DHT22;10808;48.010;11.326;2023-07-13T00:01:29;20.30;99.90
21298;DHT22;10808;48.010;11.326;2023-07-13T00:03:59;20.30;99.90
21298;DHT22;10808;48.010;11.326;2023-07-13T00:06:25;20.30;99.90
21298;DHT22;10808;48.010;11.326;2023-07-13T00:08:56;20.20;99.90
21298;DHT22;10808;48.010;11.326;2023-07-13T00:11:22;20.30;99.90
21298;DHT22;10808;48.010;11.326;2023-07-13T00:13:48;20.20;99.90
21298;DHT22;10808;48.010;11.326;2023-07-13T00:16:14;20.20;99.90
21298;DHT22;10808;48.010;11.326;2023-07-13T00:18:40;20.20;99.90
21298;DHT22;10808;48.010;11.326;2023-07-13T00:21:06;20.10;99.90
21298;DHT22;10808;48.010;11.326;2023-07-13T00:23:37;20.10;99.90
21298;DHT22;10808;48.010;11.326;2023-07-13T00:26:05;20.10;99.90
21298;DHT22;10808;48.010;11.326;2023-07-13T00:28:33;20.00;99.90
21298;DHT22;10808;48.010;11.326;2023-07-13T00:30:59;20.00;99.90
21298;DHT22;10808;48.010;11.326;2023-07-13T00:33:27;20.10;99.90
21298;DHT22;10808;48.010;11.326;2023-07-13T00:35:54;20.00;99.90
21298;DHT22;10808;48.010;11.326;2023-07-13T00:38:21;20.10;99.90
21298;DHT22;10808;48.010;11.326;2023-07-13T00:40:48;20.10;99.90
21298;DHT22;10808;48.010;11.326;2023-07-13T00:43:17;20.10;99.90
21298;DHT22;10808;48.010;11.326;2023-07-13T00:48:12;20.10;99.90
21298;DHT22;10808;48.010;11.326;2023-07-13T00:50:39;20.10;99.90
21298;DHT22;10808;48.010;11.326;2023-07-13T00:53:07;20.10;99.90
21298;DHT22;10808;48.010;11.326;2023-07-13T00:55:35;20.00;99.90
21298;DHT22;10808;48.010;11.326;2023-07-13T00:58:01;20.10;99.90
21298;DHT22;10808;48.010;11.326;2023-07-13T01:00:29;20.00;99.90
21298;DHT22;10808;48.010;11.326;2023-07-13T01:02:55;20.10;99.90
21298;DHT22;10808;48.010;11.326;2023-07-13T01:05:23;20.10;99.90
21298;DHT22;10808;48.010;11.326;2023-07-13T01:07:51;20.10;99.90
21298;DHT22;10808;48.010;11.326;2023-07-13T01:10:22;20.10;99.90
21298;DHT22;10808;48.010;11.326;2023-07-13T01:12:48;20.00;99.90
21298;DHT22;10808;48.010;11.326;2023-07-13T01:18:03;20.00;99.90
21298;DHT22;10808;48.010;11.326;2023-07-13T01:20:30;20.00;99.90
21298;DHT22;10808;48.010;11.326;2023-07-13T01:22:57;20.00;99.90
21298;DHT22;10808;48.010;11.326;2023-07-13T01:25:23;20.00;99.90
21298;DHT22;10808;48.010;11.326;2023-07-13T01:27:49;20.00;99.90
21298;DHT22;10808;48.010;11.326;2023-07-13T01:30:15;20.00;99.90
21298;DHT22;10808;48.010;11.326;2023-07-13T01:32:41;19.90;99.90
21298;DHT22;10808;48.010;11.326;2023-07-13T01:35:08;19.80;99.90
21298;DHT22;10808;48.010;11.326;2023-07-13T01:37:34;19.80;99.90
21298;DHT22;10808;48.010;11.326;2023-07-13T01:40:03;19.80;99.90
21298;DHT22;10808;48.010;11.326;2023-07-13T01:42:30;19.80;99.90
21298;DHT22;10808;48.010;11.326;2023-07-13T01:44:56;19.80;99.90
21298;DHT22;10808;48.010;11.326;2023-07-13T01:47:23;19.70;99.90
21298;DHT22;10808;48.010;11.326;2023-07-13T01:49:49;19.70;99.90
21298;DHT22;10808;48.010;11.326;2023-07-13T01:52:17;19.60;99.90
21298;DHT22;10808;48.010;11.326;2023-07-13T01:54:43;19.60;99.90
21298;DHT22;10808;48.010;11.326;2023-07-13T01:57:09;19.50;99.90
21298;DHT22;10808;48.010;11.326;2023-07-13T01:59:35;19.50;99.90
21298;DHT22;10808;48.010;11.326;2023-07-13T02:02:01;19.40;99.90
21298;DHT22;10808;48.010;11.326;2023-07-13T02:04:27;19.40;99.90
21298;DHT22;10808;48.010;11.326;2023-07-13T02:06:53;19.50;99.90
21298;DHT22;10808;48.010;11.326;2023-07-13T02:09:21;19.40;99.90
21298;DHT22;10808;48.010;11.326;2023-07-13T02:11:47;19.40;99.90
21298;DHT22;10808;48.010;11.326;2023-07-13T02:14:14;19.40;99.90
21298;DHT22;10808;48.010;11.326;2023-07-13T02:16:41;19.40;99.90
21298;DHT22;10808;48.010;11.326;2023-07-13T02:19:08;19.40;99.90
21298;DHT22;10808;48.010;11.326;2023-07-13T02:21:34;19.40;99.90
21298;DHT22;10808;48.010;11.326;2023-07-13T02:24:00;19.40;99.90
21298;DHT22;10808;48.010;11.326;2023-07-13T02:26:27;19.40;99.90
21298;DHT22;10808;48.010;11.326;2023-07-13T02:28:53;19.40;99.90
21298;DHT22;10808;48.010;11.326;2023-07-13T02:31:19;19.40;99.90
21298;DHT22;10808;48.010;11.326;2023-07-13T02:33:45;19.30;99.90
21298;DHT22;10808;48.010;11.326;2023-07-13T02:36:12;19.30;99.90
21298;DHT22;10808;48.010;11.326;2023-07-13T02:38:42;19.30;99.90
21298;DHT22;10808;48.010;11.326;2023-07-13T02:41:09;19.30;99.90
21298;DHT22;10808;48.010;11.326;2023-07-13T02:43:36;19.20;99.90
21298;DHT22;10808;48.010;11.326;2023-07-13T02:46:02;19.10;99.90
21298;DHT22;10808;48.010;11.326;2023-07-13T02:48:36;19.00;99.90
21298;DHT22;10808;48.010;11.326;2023-07-13T02:51:02;18.90;99.90
21298;DHT22;10808;48.010;11.326;2023-07-13T02:53:28;18.90;99.90
21298;DHT22;10808;48.010;11.326;2023-07-13T02:55:54;18.80;99.90
21298;DHT22;10808;48.010;11.326;2023-07-13T02:58:20;18.80;99.90
21298;DHT22;10808;48.010;11.326;2023-07-13T03:00:47;18.80;99.90
21298;DHT22;10808;48.010;11.326;2023-07-13T03:03:14;18.70;99.90
21298;DHT22;10808;48.010;11.326;2023-07-13T03:05:41;18.60;99.90
21298;DHT22;10808;48.010;11.326;2023-07-13T03:08:09;18.50;99.90
21298;DHT22;10808;48.010;11.326;2023-07-13T03:10:35;18.40;99.90
21298;DHT22;10808;48.010;11.326;2023-07-13T03:13:02;18.30;99.90
21298;DHT22;10808;48.010;11.326;2023-07-13T03:15:28;18.20;99.90
21298;DHT22;10808;48.010;11.326;2023-07-13T03:17:54;18.20;99.90
21298;DHT22;10808;48.010;11.326;2023-07-13T03:20:20;18.20;99.90
21298;DHT22;10808;48.010;11.326;2023-07-13T03:22:46;18.40;99.90
21298;DHT22;10808;48.010;11.326;2023-07-13T03:25:12;18.40;99.90
21298;DHT22;10808;48.010;11.326;2023-07-13T03:27:38;18.40;99.90
21298;DHT22;10808;48.010;11.326;2023-07-13T03:30:05;18.50;99.90
21298;DHT22;10808;48.010;11.326;2023-07-13T03:32:32;18.50;99.90
21298;DHT22;10808;48.010;11.326;2023-07-13T03:34:58;18.40;99.90
21298;DHT22;10808;48.010;11.326;2023-07-13T03:37:24;18.50;99.90
21298;DHT22;10808;48.010;11.326;2023-07-13T03:39:50;18.50;99.90
21298;DHT22;10808;48.010;11.326;2023-07-13T03:42:16;18.50;99.90
21298;DHT22;10808;48.010;11.326;2023-07-13T03:44:43;18.50;99.90
21298;DHT22;10808;48.010;11.326;2023-07-13T03:47:18;18.50;99.90
21298;DHT22;10808;48.010;11.326;2023-07-13T03:49:44;18.60;99.90
21298;DHT22;10808;48.010;11.326;2023-07-13T03:52:11;18.60;99.90
21298;DHT22;10808;48.010;11.326;2023-07-13T03:54:37;18.60;99.90
21298;DHT22;10808;48.010;11.326;2023-07-13T03:57:04;18.60;99.90
21298;DHT22;10808;48.010;11.326;2023-07-13T03:59:30;18.60;99.90
21298;DHT22;10808;48.010;11.326;2023-07-13T04:01:56;18.60;99.90
21298;DHT22;10808;48.010;11.326;2023-07-13T04:04:22;18.60;99.90
21298;DHT22;10808;48.010;11.326;2023-07-13T04:06:48;18.60;99.90
21298;DHT22;10808;48.010;11.326;2023-07-13T04:09:14;18.50;99.90
21298;DHT22;10808;48.010;11.326;2023-07-13T04:11:40;18.50;99.90
21298;DHT22;10808;48.010;11.326;2023-07-13T04:14:06;18.50;99.90
21298;DHT22;10808;48.010;11.326;2023-07-13T04:16:32;18.50;99.90
21298;DHT22;10808;48.010;11.326;2023-07-13T04:18:58;18.50;99.90
21298;DHT22;10808;48.010;11.326;2023-07-13T04:21:28;18.50;99.90
21298;DHT22;10808;48.010;11.326;2023-07-13T04:23:54;18.50;99.90
21298;DHT22;10808;48.010;11.326;2023-07-13T04:26:21;18.60;99.90
21298;DHT22;10808;48.010;11.326;2023-07-13T04:28:49;18.60;99.90
21298;DHT22;10808;48.010;11.326;2023-07-13T04:31:15;18.60;99.90
21298;DHT22;10808;48.010;11.326;2023-07-13T04:33:41;18.60;99.90
21298;DHT22;10808;48.010;11.326;2023-07-13T04:36:09;18.60;99.90
21298;DHT22;10808;48.010;11.326;2023-07-13T04:38:36;18.60;99.90
21298;DHT22;10808;48.010;11.326;2023-07-13T04:41:07;18.60;99.90
21298;DHT22;10808;48.010;11.326;2023-07-13T04:43:34;18.60;99.90
21298;DHT22;10808;48.010;11.326;2023-07-13T04:46:08;18.70;99.90
21298;DHT22;10808;48.010;11.326;2023-07-13T04:48:35;18.70;99.90
21298;DHT22;10808;48.010;11.326;2023-07-13T04:51:01;18.70;99.90
21298;DHT22;10808;48.010;11.326;2023-07-13T04:53:28;18.70;99.90
21298;DHT22;10808;48.010;11.326;2023-07-13T04:55:55;18.70;99.90
21298;DHT22;10808;48.010;11.326;2023-07-13T04:58:22;18.70;99.90
21298;DHT22;10808;48.010;11.326;2023-07-13T05:00:49;18.80;99.90
21298;DHT22;10808;48.010;11.326;2023-07-13T05:03:15;18.80;99.90
21298;DHT22;10808;48.010;11.326;2023-07-13T05:05:41;18.80;99.90
21298;DHT22;10808;48.010;11.326;2023-07-13T05:08:07;18.90;99.90
21298;DHT22;10808;48.010;11.326;2023-07-13T05:10:33;18.90;99.90
21298;DHT22;10808;48.010;11.326;2023-07-13T05:12:59;19.00;99.90
21298;DHT22;10808;48.010;11.326;2023-07-13T05:15:26;19.00;99.90
21298;DHT22;10808;48.010;11.326;2023-07-13T05:17:52;18.90;99.90
21298;DHT22;10808;48.010;11.326;2023-07-13T05:20:19;18.90;99.90
21298;DHT22;10808;48.010;11.326;2023-07-13T05:22:45;19.00;99.90
21298;DHT22;10808;48.010;11.326;2023-07-13T05:25:14;19.00;99.90
21298;DHT22;10808;48.010;11.326;2023-07-13T05:27:40;19.00;99.90
21298;DHT22;10808;48.010;11.326;2023-07-13T05:30:07;19.00;99.90
21298;DHT22;10808;48.010;11.326;2023-07-13T05:32:36;19.00;99.90
21298;DHT22;10808;48.010;11.326;2023-07-13T05:35:02;19.00;99.90
21298;DHT22;10808;48.010;11.326;2023-07-13T05:37:28;19.00;99.90
21298;DHT22;10808;48.010;11.326;2023-07-13T05:39:54;19.00;99.90
21298;DHT22;10808;48.010;11.326;2023-07-13T05:42:20;19.00;99.90
21298;DHT22;10808;48.010;11.326;2023-07-13T05:44:46;19.10;99.90
21298;DHT22;10808;48.010;11.326;2023-07-13T05:47:12;19.10;99.90
21298;DHT22;10808;48.010;11.326;2023-07-13T05:49:40;19.20;99.90
21298;DHT22;10808;48.010;11.326;2023-07-13T05:52:07;19.20;99.90
21298;DHT22;10808;48.010;11.326;2023-07-13T05:54:33;19.30;99.90
21298;DHT22;10808;48.010;11.326;2023-07-13T05:56:59;19.30;99.90
21298;DHT22;10808;48.010;11.326;2023-07-13T05:59:25;19.30;99.90
21298;DHT22;10808;48.010;11.326;2023-07-13T06:01:51;19.30;99.90
21298;DHT22;10808;48.010;11.326;2023-07-13T06:04:18;19.30;99.90
21298;DHT22;10808;48.010;11.326;2023-07-13T06:06:45;19.30;99.90
21298;DHT22;10808;48.010;11.326;2023-07-13T06:09:11;19.30;99.90
21298;DHT22;10808;48.010;11.326;2023-07-13T06:11:37;19.30;99.90
21298;DHT22;10808;48.010;11.326;2023-07-13T06:14:03;19.30;99.90
21298;DHT22;10808;48.010;11.326;2023-07-13T06:16:29;19.30;99.90
21298;DHT22;10808;48.010;11.326;2023-07-13T06:18:55;19.30;99.90
21298;DHT22;10808;48.010;11.326;2023-07-13T06:21:22;19.40;99.90
21298;DHT22;10808;48.010;11.326;2023-07-13T06:23:50;19.40;99.90
21298;DHT22;10808;48.010;11.326;2023-07-13T06:26:18;19.40;99.90
21298;DHT22;10808;48.010;11.326;2023-07-13T06:28:44;19.40;99.90
21298;DHT22;10808;48.010;11.326;2023-07-13T06:31:13;19.40;99.90
21298;DHT22;10808;48.010;11.326;2023-07-13T06:33:39;19.40;99.90
21298;DHT22;10808;48.010;11.326;2023-07-13T06:36:07;19.30;99.90
21298;DHT22;10808;48.010;11.326;2023-07-13T06:38:33;19.30;99.90
21298;DHT22;10808;48.010;11.326;2023-07-13T06:41:00;19.30;99.90
21298;DHT22;10808;48.010;11.326;2023-07-13T06:43:26;19.30;99.90
21298;DHT22;10808;48.010;11.326;2023-07-13T06:45:55;19.30;99.90
21298;DHT22;10808;48.010;11.326;2023-07-13T06:48:21;19.30;99.90
21298;DHT22;10808;48.010;11.326;2023-07-13T06:50:48;19.40;99.90
21298;DHT22;10808;48.010;11.326;2023-07-13T06:53:15;19.30;99.90
21298;DHT22;10808;48.010;11.326;2023-07-13T06:55:43;19.30;99.90
21298;DHT22;10808;48.010;11.326;2023-07-13T06:58:09;19.40;99.90
21298;DHT22;10808;48.010;11.326;2023-07-13T07:00:35;19.30;99.90
21298;DHT22;10808;48.010;11.326;2023-07-13T07:03:02;19.30;99.90
21298;DHT22;10808;48.010;11.326;2023-07-13T07:05:28;19.30;99.90
21298;DHT22;10808;48.010;11.326;2023-07-13T07:07:55;19.30;99.90
21298;DHT22;10808;48.010;11.326;2023-07-13T07:10:21;19.30;99.90
21298;DHT22;10808;48.010;11.326;2023-07-13T07:12:48;19.30;99.90
21298;DHT22;10808;48.010;11.326;2023-07-13T07:15:14;19.40;99.90
21298;DHT22;10808;48.010;11.326;2023-07-13T07:17:40;19.40;99.90
21298;DHT22;10808;48.010;11.326;2023-07-13T07:20:07;19.30;99.90
21298;DHT22;10808;48.010;11.326;2023-07-13T07:22:33;19.20;99.90
21298;DHT22;10808;48.010;11.326;2023-07-13T07:24:59;19.10;99.90
21298;DHT22;10808;48.010;11.326;2023-07-13T07:27:25;18.90;99.90
21298;DHT22;10808;48.010;11.326;2023-07-13T07:29:51;18.90;99.90
21298;DHT22;10808;48.010;11.326;2023-07-13T07:32:18;18.90;99.90
21298;DHT22;10808;48.010;11.326;2023-07-13T07:34:45;18.90;99.90
21298;DHT22;10808;48.010;11.326;2023-07-13T07:37:13;18.80;99.90
21298;DHT22;10808;48.010;11.326;2023-07-13T07:39:39;18.70;99.90
21298;DHT22;10808;48.010;11.326;2023-07-13T07:42:05;18.70;99.90
21298;DHT22;10808;48.010;11.326;2023-07-13T07:44:32;18.80;99.90
21298;DHT22;10808;48.010;11.326;2023-07-13T07:46:58;18.80;99.90
21298;DHT22;10808;48.010;11.326;2023-07-13T07:49:25;18.80;99.90
21298;DHT22;10808;48.010;11.326;2023-07-13T07:51:51;18.70;99.90
21298;DHT22;10808;48.010;11.326;2023-07-13T07:54:18;18.60;99.90
21298;DHT22;10808;48.010;11.326;2023-07-13T07:56:44;18.50;99.90
21298;DHT22;10808;48.010;11.326;2023-07-13T07:59:10;18.50;99.90
21298;DHT22;10808;48.010;11.326;2023-07-13T08:01:36;18.50;99.90
21298;DHT22;10808;48.010;11.326;2023-07-13T08:04:03;18.50;99.90
21298;DHT22;10808;48.010;11.326;2023-07-13T08:06:29;18.40;99.90
21298;DHT22;10808;48.010;11.326;2023-07-13T08:08:55;18.40;99.90
21298;DHT22;10808;48.010;11.326;2023-07-13T08:11:22;18.40;99.90
21298;DHT22;10808;48.010;11.326;2023-07-13T08:13:49;18.40;99.90
21298;DHT22;10808;48.010;11.326;2023-07-13T08:16:15;18.30;99.90
21298;DHT22;10808;48.010;11.326;2023-07-13T08:18:41;18.40;99.90
21298;DHT22;10808;48.010;11.326;2023-07-13T08:21:08;18.40;99.90
21298;DHT22;10808;48.010;11.326;2023-07-13T08:23:35;18.40;99.90
21298;DHT22;10808;48.010;11.326;2023-07-13T08:26:01;18.40;99.90
21298;DHT22;10808;48.010;11.326;2023-07-13T08:28:28;18.50;99.90
21298;DHT22;10808;48.010;11.326;2023-07-13T08:30:54;18.40;99.90
21298;DHT22;10808;48.010;11.326;2023-07-13T08:33:21;18.40;99.90
21298;DHT22;10808;48.010;11.326;2023-07-13T08:35:50;18.40;99.90
21298;DHT22;10808;48.010;11.326;2023-07-13T08:38:17;18.50;99.90
21298;DHT22;10808;48.010;11.326;2023-07-13T08:40:45;18.50;99.90
21298;DHT22;10808;48.010;11.326;2023-07-13T08:43:22;18.60;99.90
21298;DHT22;10808;48.010;11.326;2023-07-13T08:46:02;18.50;99.90
21298;DHT22;10808;48.010;11.326;2023-07-13T08:48:35;18.60;99.90
21298;DHT22;10808;48.010;11.326;2023-07-13T08:51:12;18.60;99.90
21298;DHT22;10808;48.010;11.326;2023-07-13T08:53:54;18.70;99.90
21298;DHT22;10808;48.010;11.326;2023-07-13T08:56:23;18.70;99.90
21298;DHT22;10808;48.010;11.326;2023-07-13T08:58:55;18.70;99.90
21298;DHT22;10808;48.010;11.326;2023-07-13T09:01:44;18.70;99.90
21298;DHT22;10808;48.010;11.326;2023-07-13T09:04:18;18.70;99.90
21298;DHT22;10808;48.010;11.326;2023-07-13T09:09:41;18.90;99.90
21298;DHT22;10808;48.010;11.326;2023-07-13T09:15:35;19.00;99.90
21298;DHT22;10808;48.010;11.326;2023-07-13T09:18:09;19.10;99.90
21298;DHT22;10808;48.010;11.326;2023-07-13T09:21:03;19.10;99.90
21298;DHT22;10808;48.010;11.326;2023-07-13T09:23:30;19.10;99.90
21298;DHT22;10808;48.010;11.326;2023-07-13T09:26:19;19.10;99.90
21298;DHT22;10808;48.010;11.326;2023-07-13T09:28:53;19.20;99.90
21298;DHT22;10808;48.010;11.326;2023-07-13T09:31:32;19.30;99.90
21298;DHT22;10808;48.010;11.326;2023-07-13T09:34:00;19.30;99.90
21298;DHT22;10808;48.010;11.326;2023-07-13T09:36:32;19.30;99.90
21298;DHT22;10808;48.010;11.326;2023-07-13T09:44:28;19.60;99.90
21298;DHT22;10808;48.010;11.326;2023-07-13T09:46:57;19.70;99.90
21298;DHT22;10808;48.010;11.326;2023-07-13T09:49:27;19.70;99.90
21298;DHT22;10808;48.010;11.326;2023-07-13T09:52:03;19.80;99.90
21298;DHT22;10808;48.010;11.326;2023-07-13T09:54:34;19.80;99.90
21298;DHT22;10808;48.010;11.326;2023-07-13T09:57:02;19.90;99.90
21298;DHT22;10808;48.010;11.326;2023-07-13T09:59:32;20.10;99.90
21298;DHT22;10808;48.010;11.326;2023-07-13T10:01:59;20.20;99.90
21298;DHT22;10808;48.010;11.326;2023-07-13T10:04:32;20.20;99.90
21298;DHT22;10808;48.010;11.326;2023-07-13T10:07:12;20.30;99.90
21298;DHT22;10808;48.010;11.326;2023-07-13T10:09:39;20.40;99.90
21298;DHT22;10808;48.010;11.326;2023-07-13T10:12:14;20.60;99.90
21298;DHT22;10808;48.010;11.326;2023-07-13T10:14:42;20.80;99.90
21298;DHT22;10808;48.010;11.326;2023-07-13T10:17:12;21.00;99.90
21298;DHT22;10808;48.010;11.326;2023-07-13T10:19:40;21.30;99.90
21298;DHT22;10808;48.010;11.326;2023-07-13T10:22:37;21.60;99.90
21298;DHT22;10808;48.010;11.326;2023-07-13T10:24:59;22.20;99.90
21298;DHT22;10808;48.010;11.326;2023-07-13T10:27:33;22.70;99.90
21298;DHT22;10808;48.010;11.326;2023-07-13T10:30:09;22.90;99.90
21298;DHT22;10808;48.010;11.326;2023-07-13T10:32:37;23.10;99.80
21298;DHT22;10808;48.010;11.326;2023-07-13T10:35:03;23.40;98.70
21298;DHT22;10808;48.010;11.326;2023-07-13T10:37:43;23.50;99.10
21298;DHT22;10808;48.010;11.326;2023-07-13T10:40:23;24.20;99.90
21298;DHT22;10808;48.010;11.326;2023-07-13T10:42:53;24.90;99.90
21298;DHT22;10808;48.010;11.326;2023-07-13T10:45:21;25.40;96.90
21298;DHT22;10808;48.010;11.326;2023-07-13T10:47:51;25.80;94.60
21298;DHT22;10808;48.010;11.326;2023-07-13T10:50:22;26.00;92.50
21298;DHT22;10808;48.010;11.326;2023-07-13T10:52:51;25.80;92.50
21298;DHT22;10808;48.010;11.326;2023-07-13T10:58:38;26.80;94.20
21298;DHT22;10808;48.010;11.326;2023-07-13T11:01:23;27.00;91.50
21298;DHT22;10808;48.010;11.326;2023-07-13T11:03:54;26.60;92.20
21298;DHT22;10808;48.010;11.326;2023-07-13T11:06:41;26.60;90.70
21298;DHT22;10808;48.010;11.326;2023-07-13T11:22:50;24.90;87.90
21298;DHT22;10808;48.010;11.326;2023-07-13T11:25:35;25.10;88.90
21298;DHT22;10808;48.010;11.326;2023-07-13T11:36:20;27.30;86.30
21298;DHT22;10808;48.010;11.326;2023-07-13T11:39:17;27.40;88.30
21298;DHT22;10808;48.010;11.326;2023-07-13T11:41:49;27.30;84.10
21298;DHT22;10808;48.010;11.326;2023-07-13T11:44:21;27.40;86.80
21298;DHT22;10808;48.010;11.326;2023-07-13T11:46:50;28.10;87.30
21298;DHT22;10808;48.010;11.326;2023-07-13T11:49:19;28.40;83.60
21298;DHT22;10808;48.010;11.326;2023-07-13T11:51:46;28.40;84.20
21298;DHT22;10808;48.010;11.326;2023-07-13T11:54:23;28.20;82.80
21298;DHT22;10808;48.010;11.326;2023-07-13T11:56:49;27.80;79.50
21298;DHT22;10808;48.010;11.326;2023-07-13T11:59:16;27.70;79.10
21298;DHT22;10808;48.010;11.326;2023-07-13T12:01:49;27.80;80.10
21298;DHT22;10808;48.010;11.326;2023-07-13T12:04:31;27.70;81.50
21298;DHT22;10808;48.010;11.326;2023-07-13T12:07:07;27.70;78.20
21298;DHT22;10808;48.010;11.326;2023-07-13T12:09:38;28.00;80.80
21298;DHT22;10808;48.010;11.326;2023-07-13T12:12:13;28.20;80.30
21298;DHT22;10808;48.010;11.326;2023-07-13T12:14:40;28.00;78.80
21298;DHT22;10808;48.010;11.326;2023-07-13T12:17:19;28.00;80.10
21298;DHT22;10808;48.010;11.326;2023-07-13T12:19:46;27.80;78.30
21298;DHT22;10808;48.010;11.326;2023-07-13T12:22:14;27.60;78.20
21298;DHT22;10808;48.010;11.326;2023-07-13T12:24:41;27.40;79.90
21298;DHT22;10808;48.010;11.326;2023-07-13T12:27:21;27.00;79.40
21298;DHT22;10808;48.010;11.326;2023-07-13T12:29:51;27.00;82.70
21298;DHT22;10808;48.010;11.326;2023-07-13T12:32:19;27.10;82.50
21298;DHT22;10808;48.010;11.326;2023-07-13T12:34:57;26.70;81.30
21298;DHT22;10808;48.010;11.326;2023-07-13T12:37:24;26.40;81.90
21298;DHT22;10808;48.010;11.326;2023-07-13T12:39:51;26.20;84.20
21298;DHT22;10808;48.010;11.326;2023-07-13T12:42:23;26.20;85.00
21298;DHT22;10808;48.010;11.326;2023-07-13T12:44:58;26.30;87.20
21298;DHT22;10808;48.010;11.326;2023-07-13T12:47:26;26.50;84.80
21298;DHT22;10808;48.010;11.326;2023-07-13T12:49:58;26.80;84.70
21298;DHT22;10808;48.010;11.326;2023-07-13T12:52:30;27.10;85.00
21298;DHT22;10808;48.010;11.326;2023-07-13T12:54:59;27.50;84.80
21298;DHT22;10808;48.010;11.326;2023-07-13T12:57:28;27.80;85.70
21298;DHT22;10808;48.010;11.326;2023-07-13T12:59:55;28.10;84.80
21298;DHT22;10808;48.010;11.326;2023-07-13T13:02:33;28.40;84.50
21298;DHT22;10808;48.010;11.326;2023-07-13T13:05:01;28.50;80.70
21298;DHT22;10808;48.010;11.326;2023-07-13T13:07:29;28.60;80.70
21298;DHT22;10808;48.010;11.326;2023-07-13T13:09:55;28.80;80.20
21298;DHT22;10808;48.010;11.326;2023-07-13T13:12:22;29.00;79.70
21298;DHT22;10808;48.010;11.326;2023-07-13T13:14:50;29.10;78.10
21298;DHT22;10808;48.010;11.326;2023-07-13T13:17:22;28.70;78.60
21298;DHT22;10808;48.010;11.326;2023-07-13T13:19:50;28.60;78.50
21298;DHT22;10808;48.010;11.326;2023-07-13T13:22:19;28.30;77.60
21298;DHT22;10808;48.010;11.326;2023-07-13T13:24:45;28.10;80.20
21298;DHT22;10808;48.010;11.326;2023-07-13T13:27:19;28.00;80.80
21298;DHT22;10808;48.010;11.326;2023-07-13T13:29:46;28.00;80.20
21298;DHT22;10808;48.010;11.326;2023-07-13T13:32:13;27.90;79.50
21298;DHT22;10808;48.010;11.326;2023-07-13T13:34:40;27.80;79.30
21298;DHT22;10808;48.010;11.326;2023-07-13T13:37:25;27.80;81.20
21298;DHT22;10808;48.010;11.326;2023-07-13T13:39:52;27.60;79.90
21298;DHT22;10808;48.010;11.326;2023-07-13T13:42:19;27.50;80.60
21298;DHT22;10808;48.010;11.326;2023-07-13T13:44:48;27.40;80.50
21298;DHT22;10808;48.010;11.326;2023-07-13T13:47:30;27.30;82.00
21298;DHT22;10808;48.010;11.326;2023-07-13T13:49:57;27.10;82.90
21298;DHT22;10808;48.010;11.326;2023-07-13T13:52:24;27.00;81.70
21298;DHT22;10808;48.010;11.326;2023-07-13T13:54:51;26.90;82.80
21298;DHT22;10808;48.010;11.326;2023-07-13T13:57:24;26.90;81.50
21298;DHT22;10808;48.010;11.326;2023-07-13T13:59:54;26.90;83.60
21298;DHT22;10808;48.010;11.326;2023-07-13T14:02:26;27.00;83.10
21298;DHT22;10808;48.010;11.326;2023-07-13T14:04:56;26.90;83.10
21298;DHT22;10808;48.010;11.326;2023-07-13T14:07:23;26.90;83.70
21298;DHT22;10808;48.010;11.326;2023-07-13T14:09:49;26.80;83.20
21298;DHT22;10808;48.010;11.326;2023-07-13T14:12:15;26.70;83.70
21298;DHT22;10808;48.010;11.326;2023-07-13T14:14:42;26.70;83.00
21298;DHT22;10808;48.010;11.326;2023-07-13T14:17:34;26.80;83.40
21298;DHT22;10808;48.010;11.326;2023-07-13T14:20:00;26.70;82.20
21298;DHT22;10808;48.010;11.326;2023-07-13T14:22:27;26.50;82.40
21298;DHT22;10808;48.010;11.326;2023-07-13T14:24:53;26.30;82.50
21298;DHT22;10808;48.010;11.326;2023-07-13T14:27:20;26.30;82.60
21298;DHT22;10808;48.010;11.326;2023-07-13T14:29:46;26.70;83.10
21298;DHT22;10808;48.010;11.326;2023-07-13T14:32:13;27.20;82.40
21298;DHT22;10808;48.010;11.326;2023-07-13T14:34:39;27.30;82.40
21298;DHT22;10808;48.010;11.326;2023-07-13T14:37:05;27.50;83.70
21298;DHT22;10808;48.010;11.326;2023-07-13T14:39:32;27.60;81.80
21298;DHT22;10808;48.010;11.326;2023-07-13T14:41:58;27.80;82.50
21298;DHT22;10808;48.010;11.326;2023-07-13T14:44:26;27.70;79.20
21298;DHT22;10808;48.010;11.326;2023-07-13T14:46:52;27.70;79.80
21298;DHT22;10808;48.010;11.326;2023-07-13T14:49:41;27.90;80.10
21298;DHT22;10808;48.010;11.326;2023-07-13T14:52:18;28.10;78.20
21298;DHT22;10808;48.010;11.326;2023-07-13T14:54:44;28.00;77.20
21298;DHT22;10808;48.010;11.326;2023-07-13T14:57:13;27.70;76.70
21298;DHT22;10808;48.010;11.326;2023-07-13T14:59:40;27.50;76.80
21298;DHT22;10808;48.010;11.326;2023-07-13T15:02:21;27.60;77.30
21298;DHT22;10808;48.010;11.326;2023-07-13T15:04:50;27.50;77.90
21298;DHT22;10808;48.010;11.326;2023-07-13T15:07:16;27.30;77.70
21298;DHT22;10808;48.010;11.326;2023-07-13T15:09:44;27.20;78.50
21298;DHT22;10808;48.010;11.326;2023-07-13T15:12:10;27.20;78.20
21298;DHT22;10808;48.010;11.326;2023-07-13T15:14:36;27.10;79.60
21298;DHT22;10808;48.010;11.326;2023-07-13T15:17:03;27.20;78.50
21298;DHT22;10808;48.010;11.326;2023-07-13T15:19:29;27.50;79.20
21298;DHT22;10808;48.010;11.326;2023-07-13T15:21:56;27.40;78.70
21298;DHT22;10808;48.010;11.326;2023-07-13T15:24:24;27.60;80.60
21298;DHT22;10808;48.010;11.326;2023-07-13T15:26:50;27.50;78.40
21298;DHT22;10808;48.010;11.326;2023-07-13T15:29:16;27.50;79.20
21298;DHT22;10808;48.010;11.326;2023-07-13T15:31:43;27.40;79.00
21298;DHT22;10808;48.010;11.326;2023-07-13T15:34:11;27.40;77.80
21298;DHT22;10808;48.010;11.326;2023-07-13T15:36:39;27.50;77.80
21298;DHT22;10808;48.010;11.326;2023-07-13T15:39:05;27.30;76.70
21298;DHT22;10808;48.010;11.326;2023-07-13T15:41:33;27.20;77.80
21298;DHT22;10808;48.010;11.326;2023-07-13T15:44:00;27.00;78.30
21298;DHT22;10808;48.010;11.326;2023-07-13T15:46:30;26.80;78.80
21298;DHT22;10808;48.010;11.326;2023-07-13T15:48:59;26.70;79.00
21298;DHT22;10808;48.010;11.326;2023-07-13T15:51:28;26.60;79.50
21298;DHT22;10808;48.010;11.326;2023-07-13T15:53:58;26.70;80.70
21298;DHT22;10808;48.010;11.326;2023-07-13T15:56:29;26.80;79.70
21298;DHT22;10808;48.010;11.326;2023-07-13T15:58:56;26.60;81.00
21298;DHT22;10808;48.010;11.326;2023-07-13T16:01:23;26.50;80.20
21298;DHT22;10808;48.010;11.326;2023-07-13T16:03:50;26.20;78.90
21298;DHT22;10808;48.010;11.326;2023-07-13T16:06:26;26.10;80.40